RYR8VP EGPH-EICK
Flight info
| Callsign | RYR8VP |
|---|---|
| Flight time | 0h 56m |
| Altitude | 22000 |
| Route | GOSAM P600 TRN/N0419F320 DCT BLACA DCT NELBO DCT NIMAT DCT DUB DCT TISMO TISMO1G |
| Aircraft | B738/M-SDE3FGILRWY/SB1 |
Departure
| Time | 2026-05-04 10:16 |
|---|---|
| Airport | Edinburgh Airport (EGPH) |
Arrival
| Time | 2026-05-04 11:13 |
|---|---|
| Airport | Cork International Airport (EICK) |
| Time | Latitude | Longitude | Altitude | Speed | Heading |
|---|---|---|---|---|---|
| 2026-05-04 09:57 | 55.94702 | -3.36608 | 113 ft | 0 kts | 89° |
| 2026-05-04 10:04 | 55.94667 | -3.36735 | 111 ft | 0 kts | 359° |
| 2026-05-04 10:09 | 55.94669 | -3.36735 | 115 ft | 1 kts | 359° |
| 2026-05-04 10:09 | 55.94693 | -3.36736 | 114 ft | 7 kts | 359° |
| 2026-05-04 10:09 | 55.94753 | -3.36751 | 115 ft | 10 kts | 332° |
| 2026-05-04 10:09 | 55.94817 | -3.36777 | 115 ft | 10 kts | 359° |
| 2026-05-04 10:10 | 55.94881 | -3.36789 | 115 ft | 9 kts | 338° |
| 2026-05-04 10:10 | 55.94940 | -3.36830 | 115 ft | 9 kts | 14° |
| 2026-05-04 10:10 | 55.94980 | -3.36737 | 113 ft | 10 kts | 59° |
| 2026-05-04 10:10 | 55.95014 | -3.36635 | 113 ft | 11 kts | 59° |
| 2026-05-04 10:11 | 55.95061 | -3.36496 | 112 ft | 14 kts | 59° |
| 2026-05-04 10:11 | 55.95112 | -3.36346 | 114 ft | 14 kts | 59° |
| 2026-05-04 10:11 | 55.95161 | -3.36203 | 113 ft | 13 kts | 59° |
| 2026-05-04 10:11 | 55.95206 | -3.36065 | 114 ft | 13 kts | 59° |
| 2026-05-04 10:12 | 55.95252 | -3.35932 | 113 ft | 12 kts | 58° |
| 2026-05-04 10:12 | 55.95296 | -3.35802 | 114 ft | 12 kts | 58° |
| 2026-05-04 10:12 | 55.95340 | -3.35675 | 114 ft | 12 kts | 58° |
| 2026-05-04 10:12 | 55.95382 | -3.35551 | 114 ft | 12 kts | 58° |
| 2026-05-04 10:13 | 55.95423 | -3.35433 | 115 ft | 10 kts | 56° |
| 2026-05-04 10:13 | 55.95471 | -3.35410 | 115 ft | 8 kts | 337° |
| 2026-05-04 10:13 | 55.95493 | -3.35433 | 115 ft | 2 kts | 328° |
| 2026-05-04 10:13 | 55.95496 | -3.35436 | 113 ft | 0 kts | 328° |
| 2026-05-04 10:14 | 55.95500 | -3.35441 | 113 ft | 1 kts | 328° |
| 2026-05-04 10:14 | 55.95508 | -3.35450 | 112 ft | 2 kts | 328° |
| 2026-05-04 10:16 | 55.95085 | -3.36998 | 112 ft | 128 kts | 239° |
| 2026-05-04 10:16 | 55.94560 | -3.38559 | 370 ft | 153 kts | 240° |
| 2026-05-04 10:16 | 55.94014 | -3.40174 | 1161 ft | 149 kts | 240° |
| 2026-05-04 10:16 | 55.93449 | -3.41812 | 1719 ft | 166 kts | 240° |
| 2026-05-04 10:17 | 55.92786 | -3.43737 | 1999 ft | 195 kts | 240° |
| 2026-05-04 10:17 | 55.92034 | -3.45902 | 2299 ft | 214 kts | 240° |
| 2026-05-04 10:19 | 55.88922 | -3.66216 | 6775 ft | 258 kts | 261° |
| 2026-05-04 10:19 | 55.88607 | -3.69353 | 7631 ft | 259 kts | 261° |
| 2026-05-04 10:19 | 55.88286 | -3.72540 | 8365 ft | 264 kts | 261° |
| 2026-05-04 10:19 | 55.87958 | -3.75781 | 9133 ft | 268 kts | 261° |
| 2026-05-04 10:20 | 55.87625 | -3.79069 | 9936 ft | 271 kts | 261° |
| 2026-05-04 10:20 | 55.87290 | -3.82434 | 10408 ft | 285 kts | 261° |
| 2026-05-04 10:20 | 55.86931 | -3.86057 | 10635 ft | 307 kts | 261° |
| 2026-05-04 10:20 | 55.86557 | -3.89827 | 11145 ft | 317 kts | 261° |
| 2026-05-04 10:21 | 55.86168 | -3.93714 | 11874 ft | 320 kts | 261° |
| 2026-05-04 10:21 | 55.85774 | -3.97644 | 12623 ft | 324 kts | 262° |
| 2026-05-04 10:21 | 55.85374 | -4.01622 | 13366 ft | 329 kts | 262° |
| 2026-05-04 10:21 | 55.84966 | -4.05651 | 14110 ft | 333 kts | 262° |
| 2026-05-04 10:22 | 55.83474 | -4.13498 | 15505 ft | 347 kts | 237° |
| 2026-05-04 10:22 | 55.82414 | -4.15722 | 16008 ft | 351 kts | 226° |
| 2026-05-04 10:22 | 55.80466 | -4.18414 | 16740 ft | 358 kts | 217° |
| 2026-05-04 10:23 | 55.78378 | -4.20890 | 17440 ft | 362 kts | 216° |
| 2026-05-04 10:23 | 55.76292 | -4.23356 | 18126 ft | 366 kts | 217° |
| 2026-05-04 10:25 | 55.60995 | -4.42167 | 22093 ft | 398 kts | 217° |
| 2026-05-04 10:25 | 55.58708 | -4.44982 | 22635 ft | 403 kts | 217° |
| 2026-05-04 10:25 | 55.56399 | -4.47821 | 23173 ft | 407 kts | 217° |
| 2026-05-04 10:25 | 55.54050 | -4.50704 | 23623 ft | 413 kts | 217° |
| 2026-05-04 10:26 | 55.51675 | -4.53613 | 24049 ft | 417 kts | 217° |
| 2026-05-04 10:26 | 55.49282 | -4.56539 | 24539 ft | 420 kts | 217° |
| 2026-05-04 10:26 | 55.46877 | -4.59476 | 25011 ft | 422 kts | 217° |
| 2026-05-04 10:26 | 55.44454 | -4.62431 | 25446 ft | 425 kts | 217° |
| 2026-05-04 10:27 | 55.42011 | -4.65407 | 25849 ft | 429 kts | 217° |
| 2026-05-04 10:27 | 55.39569 | -4.68377 | 26212 ft | 434 kts | 217° |
| 2026-05-04 10:27 | 55.37077 | -4.71404 | 26631 ft | 437 kts | 217° |
| 2026-05-04 10:27 | 55.34564 | -4.74450 | 27064 ft | 440 kts | 217° |
| 2026-05-04 10:28 | 55.32036 | -4.77506 | 27460 ft | 443 kts | 216° |
| 2026-05-04 10:28 | 55.29388 | -4.80334 | 27840 ft | 448 kts | 210° |
| 2026-05-04 10:28 | 55.26600 | -4.82828 | 28224 ft | 452 kts | 208° |
| 2026-05-04 10:28 | 55.23763 | -4.85245 | 28606 ft | 455 kts | 207° |
| 2026-05-04 10:29 | 55.20904 | -4.87660 | 28980 ft | 458 kts | 207° |
| 2026-05-04 10:29 | 55.18030 | -4.90108 | 29353 ft | 461 kts | 208° |
| 2026-05-04 10:29 | 55.15145 | -4.92594 | 29687 ft | 464 kts | 207° |
| 2026-05-04 10:29 | 55.12236 | -4.95122 | 29893 ft | 470 kts | 207° |
| 2026-05-04 10:30 | 55.09298 | -4.97685 | 30209 ft | 473 kts | 207° |
| 2026-05-04 10:30 | 55.06353 | -5.00254 | 30534 ft | 474 kts | 207° |
| 2026-05-04 10:30 | 55.03396 | -5.02829 | 30902 ft | 475 kts | 207° |
| 2026-05-04 10:30 | 55.00438 | -5.05400 | 31227 ft | 476 kts | 207° |
| 2026-05-04 10:31 | 54.97475 | -5.07970 | 31547 ft | 477 kts | 207° |
| 2026-05-04 10:31 | 54.94506 | -5.10541 | 31953 ft | 476 kts | 207° |
| 2026-05-04 10:32 | 54.75939 | -5.20516 | 34392 ft | 464 kts | 190° |
| 2026-05-04 10:33 | 54.72778 | -5.21631 | 34730 ft | 463 kts | 191° |
| 2026-05-04 10:33 | 54.69626 | -5.22767 | 35021 ft | 462 kts | 191° |
| 2026-05-04 10:33 | 54.66480 | -5.23916 | 35305 ft | 462 kts | 191° |
| 2026-05-04 10:33 | 54.63344 | -5.25067 | 35631 ft | 460 kts | 191° |
| 2026-05-04 10:34 | 54.60211 | -5.26216 | 35867 ft | 461 kts | 191° |
| 2026-05-04 10:34 | 54.57062 | -5.27367 | 36075 ft | 462 kts | 191° |
| 2026-05-04 10:34 | 54.53919 | -5.28513 | 36368 ft | 461 kts | 191° |
| 2026-05-04 10:34 | 54.50795 | -5.29657 | 36711 ft | 459 kts | 193° |
| 2026-05-04 10:35 | 54.47740 | -5.31232 | 36994 ft | 458 kts | 202° |
| 2026-05-04 10:35 | 54.44859 | -5.33547 | 37253 ft | 457 kts | 206° |
| 2026-05-04 10:35 | 54.42017 | -5.36008 | 37492 ft | 457 kts | 207° |
| 2026-05-04 10:35 | 54.39188 | -5.38475 | 37873 ft | 455 kts | 207° |
| 2026-05-04 10:36 | 54.36362 | -5.40921 | 38132 ft | 457 kts | 207° |
| 2026-05-04 10:36 | 54.33499 | -5.43370 | 38094 ft | 461 kts | 206° |
| 2026-05-04 10:36 | 54.27736 | -5.48233 | 38091 ft | 460 kts | 206° |
| 2026-05-04 10:37 | 54.22075 | -5.52967 | 38090 ft | 453 kts | 206° |
| 2026-05-04 10:37 | 54.16402 | -5.57698 | 38104 ft | 453 kts | 206° |
| 2026-05-04 10:39 | 53.96618 | -5.74149 | 38097 ft | 454 kts | 208° |
| 2026-05-04 10:40 | 53.91391 | -5.80185 | 38097 ft | 455 kts | 217° |
| 2026-05-04 10:40 | 53.86297 | -5.86595 | 38114 ft | 456 kts | 216° |
| 2026-05-04 10:41 | 53.81192 | -5.92918 | 38101 ft | 458 kts | 216° |
| 2026-05-04 10:41 | 53.76018 | -5.99226 | 38092 ft | 459 kts | 215° |
| 2026-05-04 10:42 | 53.70815 | -6.05529 | 38088 ft | 460 kts | 215° |
| 2026-05-04 10:42 | 53.65610 | -6.11819 | 38088 ft | 460 kts | 215° |
| 2026-05-04 10:42 | 53.62998 | -6.14968 | 37825 ft | 464 kts | 215° |
| 2026-05-04 10:43 | 53.60366 | -6.18139 | 37435 ft | 463 kts | 215° |
| 2026-05-04 10:44 | 53.42683 | -6.39923 | 34428 ft | 447 kts | 216° |
| 2026-05-04 10:45 | 53.40231 | -6.43150 | 33951 ft | 447 kts | 216° |
| 2026-05-04 10:45 | 53.37783 | -6.46359 | 33467 ft | 446 kts | 216° |
| 2026-05-04 10:45 | 53.35344 | -6.49539 | 33079 ft | 443 kts | 216° |
| 2026-05-04 10:45 | 53.32921 | -6.52682 | 32723 ft | 439 kts | 216° |
| 2026-05-04 10:46 | 53.30505 | -6.55802 | 32343 ft | 437 kts | 216° |
| 2026-05-04 10:46 | 53.28101 | -6.58896 | 31949 ft | 435 kts | 216° |
| 2026-05-04 10:46 | 53.25738 | -6.61931 | 31566 ft | 433 kts | 216° |
| 2026-05-04 10:46 | 53.23324 | -6.65026 | 31179 ft | 431 kts | 216° |
| 2026-05-04 10:47 | 53.20981 | -6.68025 | 30795 ft | 429 kts | 216° |
| 2026-05-04 10:47 | 53.18618 | -6.71046 | 30429 ft | 428 kts | 216° |
| 2026-05-04 10:47 | 53.16260 | -6.74056 | 30051 ft | 426 kts | 216° |
| 2026-05-04 10:47 | 53.13912 | -6.77050 | 29649 ft | 423 kts | 216° |
| 2026-05-04 10:49 | 52.97995 | -6.97239 | 27089 ft | 402 kts | 216° |
| 2026-05-04 10:49 | 52.95780 | -7.00033 | 26750 ft | 398 kts | 216° |
| 2026-05-04 10:50 | 52.93576 | -7.02809 | 26412 ft | 396 kts | 216° |
| 2026-05-04 10:51 | 52.78577 | -7.21608 | 24147 ft | 378 kts | 216° |
| 2026-05-04 10:52 | 52.76483 | -7.24219 | 23796 ft | 377 kts | 216° |
| 2026-05-04 10:52 | 52.74394 | -7.26822 | 23457 ft | 375 kts | 216° |
| 2026-05-04 10:52 | 52.72318 | -7.29404 | 23122 ft | 372 kts | 216° |
| 2026-05-04 10:54 | 52.58248 | -7.46824 | 20860 ft | 353 kts | 216° |
| 2026-05-04 10:54 | 52.56303 | -7.49221 | 20478 ft | 347 kts | 216° |
| 2026-05-04 10:56 | 52.43066 | -7.65463 | 17540 ft | 326 kts | 216° |
| 2026-05-04 10:56 | 52.41266 | -7.67662 | 17213 ft | 320 kts | 216° |
| 2026-05-04 10:56 | 52.39500 | -7.69817 | 16908 ft | 313 kts | 216° |
| 2026-05-04 10:57 | 52.37793 | -7.71899 | 16621 ft | 307 kts | 216° |
| 2026-05-04 10:57 | 52.36091 | -7.73972 | 16332 ft | 303 kts | 216° |
| 2026-05-04 10:57 | 52.34397 | -7.76032 | 16054 ft | 302 kts | 216° |
| 2026-05-04 10:57 | 52.32702 | -7.78092 | 15787 ft | 308 kts | 216° |
| 2026-05-04 10:58 | 52.30945 | -7.80223 | 15502 ft | 319 kts | 216° |
| 2026-05-04 10:58 | 52.29153 | -7.82397 | 15185 ft | 322 kts | 216° |
| 2026-05-04 10:58 | 52.27355 | -7.84576 | 14869 ft | 321 kts | 216° |
| 2026-05-04 10:58 | 52.25566 | -7.86743 | 14566 ft | 320 kts | 216° |
| 2026-05-04 10:59 | 52.23786 | -7.88897 | 14252 ft | 319 kts | 215° |
| 2026-05-04 10:59 | 52.22008 | -7.91045 | 13945 ft | 318 kts | 215° |
| 2026-05-04 10:59 | 52.20234 | -7.93188 | 13605 ft | 316 kts | 216° |
| 2026-05-04 10:59 | 52.18471 | -7.95316 | 13285 ft | 315 kts | 216° |
| 2026-05-04 11:00 | 52.16715 | -7.97430 | 12972 ft | 313 kts | 216° |
| 2026-05-04 11:01 | 52.03092 | -8.05668 | 10980 ft | 297 kts | 193° |
| 2026-05-04 11:02 | 52.01096 | -8.06483 | 10694 ft | 295 kts | 193° |
| 2026-05-04 11:02 | 51.99110 | -8.07299 | 10404 ft | 294 kts | 193° |
| 2026-05-04 11:05 | 51.72756 | -8.18157 | 6600 ft | 278 kts | 193° |
| 2026-05-04 11:06 | 51.70879 | -8.18926 | 6333 ft | 277 kts | 193° |
| 2026-05-04 11:06 | 51.69106 | -8.20079 | 6062 ft | 276 kts | 217° |
| 2026-05-04 11:06 | 51.67884 | -8.22406 | 5767 ft | 273 kts | 244° |
| 2026-05-04 11:06 | 51.67184 | -8.25228 | 5437 ft | 271 kts | 252° |
| 2026-05-04 11:08 | 51.68124 | -8.39449 | 3683 ft | 167 kts | 339° |
| 2026-05-04 11:10 | 51.75284 | -8.43869 | 2176 ft | 147 kts | 343° |
| 2026-05-04 11:12 | 51.81475 | -8.47537 | 884 ft | 128 kts | 343° |
| 2026-05-04 11:12 | 51.82330 | -8.48047 | 698 ft | 133 kts | 343° |
| 2026-05-04 11:12 | 51.83184 | -8.48548 | 515 ft | 130 kts | 342° |
| 2026-05-04 11:12 | 51.83994 | -8.49025 | 472 ft | 111 kts | 340° |
| 2026-05-04 11:13 | 51.84516 | -8.49335 | 481 ft | 49 kts | 339° |
| 2026-05-04 11:13 | 51.84644 | -8.49411 | 484 ft | 7 kts | 340° |
| 2026-05-04 11:13 | 51.84689 | -8.49438 | 487 ft | 7 kts | 340° |
| 2026-05-04 11:13 | 51.84741 | -8.49463 | 486 ft | 8 kts | 359° |
| 2026-05-04 11:14 | 51.84780 | -8.49405 | 489 ft | 8 kts | 63° |
| 2026-05-04 11:14 | 51.84799 | -8.49324 | 490 ft | 8 kts | 74° |
| 2026-05-04 11:14 | 51.84793 | -8.49244 | 500 ft | 7 kts | 118° |
| 2026-05-04 11:16 | 51.84800 | -8.49031 | 502 ft | 0 kts | 70° |